KCAR

Details ICAO KCAR (CAR)
Name CARIBOU MUNI
Region United States
Timezone America/New_York (UTC-5.0)
Plans Departing 8
Arriving 2
Stats Elevation 626 ft / 191 m (AMSL)
Location 46.871310° -68.018430°
Runways 2
Magnetic Variation 17.066° W
Sunrise 2017-12-17 12:13:35 UTC / 2017-12-17 07:13:35 Local
Sunset 2017-12-17 20:45:43 UTC / 2017-12-17 15:45:43 Local
Advertisement - Login to hide

Runways

ID Width Length Bearing (true) Bearing (mag) Surface Threshold Offset Overrun Length
01 100 ft / 30 m 4,004 ft / 1,220 m 347.32° 4.39° Asphalt 0 ft / 0 m 0 ft / 0 m
11 75 ft / 23 m 3,003 ft / 915 m 87.48° 104.55° Asphalt 0 ft / 0 m 0 ft / 0 m
19 100 ft / 30 m 4,004 ft / 1,220 m 167.31° 184.38° Asphalt 0 ft / 0 m 0 ft / 0 m
29 75 ft / 23 m 3,003 ft / 915 m 267.49° 284.56° Asphalt 0 ft / 0 m 0 ft / 0 m

Map

Weather


0- 5 10 15 20 25 30 35+ Temperature / ° C

Clouds and Precipitation
Forecast for 2017-12-18 00:00 UTC. Updated 2 minutes ago

Ground ~20,000 ft ~40,000 ft Winds

METAR

KCAR 172254Z AUTO 30004KT 10SM CLR M18/M22 A3013 RMK AO2 SLP225 T11781222

TAF

TAF KCAR 171720Z 1718/1818 31010KT P6SM FEW250 FM172300 30005KT P6SM FEW250 FM181500 18004KT P6SM BKN090

Frequencies

Recorded 135.12 MHz ASOS
Unicom 122.80 MHz CTAF/UNICOM
Warning: Do not use this data for real-world aviation or navigation. No guarantee of current accuracy is given.